Strona główna
METAR-TAF:

METAR-TAF

Lotnisko :

Wakkanai, Japonia

Port lotniczy Wakkanai

Szerokość geograficzna: 45-24N, Długość geograficzna: 141-48E, wysokość: 8 m

Aktualna obserwacja pogody

Raport powstał 10 godziny i 14 minut temu, godzina 09:00 UTC
Wiatr 22 kt od północny wschód
Temperatura -9°C
Wilgotność 85%
Ciśnienie 1003 hPa
Widzialność: 1600 m
Mało chmury na wysokości 1500 ft
Przerywane chmury na wysokości 2000 ft
zawieja śnieżna, słaby przelotny opad śniegu

METAR: RJCW 170900Z 05022KT 1600 R08/2000N BLSN -SHSN FEW015 BKN020 M09/M11 Q1003

czas: 04:14 (19:14 UTC)


TAF: brakujący

Obserwacja i prognoza pogody dla ponad 4000 lotnisk (raport METAR i TAF).

Dostępne stacje oznaczono żółtymi i czerwonymi punktami na mapie.

Najedź kursorem aby zobaczyć nazwę stacji.

Kliknij aby zobaczyć obserwacje i prognozy pogody.

Aby zmienić mapę: kliknij na zielony przycisk z czarnym krzyżykiem, aby powiększyć; na zielony przycisk z myślnikiem, aby pomniejszyć; na zielone strzałki, aby przejść do map sąsiednich.


METAR-TAF: